sensor_id;sensor_type;location;lat;lon;timestamp;pressure;altitude;pressure_sealevel;temperature;humidity
23223;BME280;11780;13.904;100.620;2023-09-12T00:02:26;100892.41;;;30.76;nan
23223;BME280;11780;13.904;100.620;2023-09-12T00:04:56;100893.06;;;30.73;nan
23223;BME280;11780;13.904;100.620;2023-09-12T00:07:27;100902.50;;;30.72;nan
23223;BME280;11780;13.904;100.620;2023-09-12T00:09:57;100898.59;;;30.73;nan
23223;BME280;11780;13.904;100.620;2023-09-12T00:12:27;100900.88;;;30.71;nan
23223;BME280;11780;13.904;100.620;2023-09-12T00:14:58;100914.03;;;30.74;nan
23223;BME280;11780;13.904;100.620;2023-09-12T00:17:29;100911.28;;;30.74;nan
23223;BME280;11780;13.904;100.620;2023-09-12T00:20:00;100908.50;;;30.74;nan
23223;BME280;11780;13.904;100.620;2023-09-12T00:22:30;100920.84;;;30.76;nan
23223;BME280;11780;13.904;100.620;2023-09-12T00:25:00;100920.84;;;30.76;nan
23223;BME280;11780;13.904;100.620;2023-09-12T00:27:31;100918.44;;;30.75;nan
23223;BME280;11780;13.904;100.620;2023-09-12T00:30:02;100927.19;;;30.77;nan
23223;BME280;11780;13.904;100.620;2023-09-12T00:32:33;100934.34;;;30.78;nan
23223;BME280;11780;13.904;100.620;2023-09-12T00:35:03;100928.00;;;30.77;nan
23223;BME280;11780;13.904;100.620;2023-09-12T00:37:33;100928.81;;;30.78;nan
23223;BME280;11780;13.904;100.620;2023-09-12T00:40:05;100933.53;;;30.77;nan
23223;BME280;11780;13.904;100.620;2023-09-12T00:42:35;100943.44;;;30.78;nan
23223;BME280;11780;13.904;100.620;2023-09-12T00:45:05;100948.66;;;30.80;nan
23223;BME280;11780;13.904;100.620;2023-09-12T00:47:36;100956.13;;;30.79;nan
23223;BME280;11780;13.904;100.620;2023-09-12T00:50:08;100955.00;;;30.80;nan
23223;BME280;11780;13.904;100.620;2023-09-12T00:52:39;100955.78;;;30.81;nan
23223;BME280;11780;13.904;100.620;2023-09-12T00:55:11;100962.44;;;30.80;nan
23223;BME280;11780;13.904;100.620;2023-09-12T00:57:42;100966.03;;;30.80;nan
23223;BME280;11780;13.904;100.620;2023-09-12T01:00:12;100969.31;;;30.82;nan
23223;BME280;11780;13.904;100.620;2023-09-12T01:02:46;100974.00;;;30.82;nan
23223;BME280;11780;13.904;100.620;2023-09-12T01:05:17;100987.31;;;30.80;nan
23223;BME280;11780;13.904;100.620;2023-09-12T01:07:47;100982.13;;;30.78;nan
23223;BME280;11780;13.904;100.620;2023-09-12T01:10:18;100989.56;;;30.78;nan
23223;BME280;11780;13.904;100.620;2023-09-12T01:12:48;100993.47;;;30.77;nan
23223;BME280;11780;13.904;100.620;2023-09-12T01:15:18;101003.88;;;30.80;nan
23223;BME280;11780;13.904;100.620;2023-09-12T01:17:49;100994.78;;;30.79;nan
23223;BME280;11780;13.904;100.620;2023-09-12T01:20:25;100996.72;;;30.79;nan
23223;BME280;11780;13.904;100.620;2023-09-12T01:26:01;100999.97;;;30.81;nan
23223;BME280;11780;13.904;100.620;2023-09-12T01:28:35;101004.72;;;30.80;nan
23223;BME280;11780;13.904;100.620;2023-09-12T01:31:09;101014.63;;;30.81;nan
23223;BME280;11780;13.904;100.620;2023-09-12T01:33:40;101021.56;;;30.79;nan
23223;BME280;11780;13.904;100.620;2023-09-12T01:36:11;101021.06;;;30.77;nan
23223;BME280;11780;13.904;100.620;2023-09-12T01:38:41;101040.09;;;30.78;nan
23223;BME280;11780;13.904;100.620;2023-09-12T01:41:18;101037.53;;;30.82;nan
23223;BME280;11780;13.904;100.620;2023-09-12T01:43:50;101038.03;;;30.84;nan
23223;BME280;11780;13.904;100.620;2023-09-12T01:46:22;101030.88;;;30.83;nan
23223;BME280;11780;13.904;100.620;2023-09-12T01:48:55;101034.25;;;30.80;nan
23223;BME280;11780;13.904;100.620;2023-09-12T01:51:28;101035.25;;;30.84;nan
23223;BME280;11780;13.904;100.620;2023-09-12T01:54:00;101031.66;;;30.83;nan
23223;BME280;11780;13.904;100.620;2023-09-12T01:56:31;101048.75;;;30.86;nan
23223;BME280;11780;13.904;100.620;2023-09-12T01:59:02;101046.81;;;30.86;nan
23223;BME280;11780;13.904;100.620;2023-09-12T02:01:33;101043.53;;;30.84;nan
23223;BME280;11780;13.904;100.620;2023-09-12T02:04:03;101050.38;;;30.87;nan
23223;BME280;11780;13.904;100.620;2023-09-12T02:06:39;101059.16;;;30.89;nan
23223;BME280;11780;13.904;100.620;2023-09-12T02:09:10;101052.50;;;30.90;nan
23223;BME280;11780;13.904;100.620;2023-09-12T02:11:41;101058.88;;;30.90;nan
23223;BME280;11780;13.904;100.620;2023-09-12T02:14:12;101057.69;;;30.91;nan
23223;BME280;11780;13.904;100.620;2023-09-12T02:16:42;101055.78;;;30.92;nan
23223;BME280;11780;13.904;100.620;2023-09-12T02:19:13;101056.09;;;30.90;nan
23223;BME280;11780;13.904;100.620;2023-09-12T02:21:43;101059.50;;;30.87;nan
23223;BME280;11780;13.904;100.620;2023-09-12T02:24:13;101055.41;;;30.84;nan
23223;BME280;11780;13.904;100.620;2023-09-12T02:26:44;101055.41;;;30.84;nan
23223;BME280;11780;13.904;100.620;2023-09-12T02:29:14;101053.59;;;30.80;nan
23223;BME280;11780;13.904;100.620;2023-09-12T02:31:45;101050.19;;;30.83;nan
23223;BME280;11780;13.904;100.620;2023-09-12T02:34:16;101055.41;;;30.84;nan
23223;BME280;11780;13.904;100.620;2023-09-12T02:36:46;101066.44;;;30.84;nan
23223;BME280;11780;13.904;100.620;2023-09-12T02:39:16;101057.34;;;30.84;nan
23223;BME280;11780;13.904;100.620;2023-09-12T02:41:47;101061.94;;;30.89;nan
23223;BME280;11780;13.904;100.620;2023-09-12T02:44:17;101053.97;;;30.87;nan
23223;BME280;11780;13.904;100.620;2023-09-12T02:46:48;101074.09;;;30.88;nan
23223;BME280;11780;13.904;100.620;2023-09-12T02:49:18;101064.69;;;30.89;nan
23223;BME280;11780;13.904;100.620;2023-09-12T02:51:49;101067.63;;;30.92;nan
23223;BME280;11780;13.904;100.620;2023-09-12T02:54:19;101065.38;;;30.94;nan
23223;BME280;11780;13.904;100.620;2023-09-12T02:56:49;101072.53;;;30.95;nan
23223;BME280;11780;13.904;100.620;2023-09-12T02:59:20;101066.00;;;30.91;nan
23223;BME280;11780;13.904;100.620;2023-09-12T03:01:50;101060.47;;;30.91;nan
23223;BME280;11780;13.904;100.620;2023-09-12T03:04:20;101059.84;;;30.94;nan
23223;BME280;11780;13.904;100.620;2023-09-12T03:06:51;101060.66;;;30.95;nan
23223;BME280;11780;13.904;100.620;2023-09-12T03:09:21;101055.16;;;30.95;nan
23223;BME280;11780;13.904;100.620;2023-09-12T03:11:52;101056.44;;;30.97;nan
23223;BME280;11780;13.904;100.620;2023-09-12T03:14:22;101059.34;;;30.92;nan
23223;BME280;11780;13.904;100.620;2023-09-12T03:16:53;101044.59;;;30.97;nan
23223;BME280;11780;13.904;100.620;2023-09-12T03:19:23;101045.72;;;30.96;nan
23223;BME280;11780;13.904;100.620;2023-09-12T03:21:54;101054.31;;;30.94;nan
23223;BME280;11780;13.904;100.620;2023-09-12T03:24:24;101051.09;;;31.01;nan
23223;BME280;11780;13.904;100.620;2023-09-12T03:26:55;101047.03;;;30.98;nan
23223;BME280;11780;13.904;100.620;2023-09-12T03:29:25;101051.44;;;30.99;nan
23223;BME280;11780;13.904;100.620;2023-09-12T03:31:56;101051.44;;;30.99;nan
23223;BME280;11780;13.904;100.620;2023-09-12T03:34:27;101051.09;;;31.01;nan
23223;BME280;11780;13.904;100.620;2023-09-12T03:36:57;101048.66;;;30.99;nan
23223;BME280;11780;13.904;100.620;2023-09-12T03:39:28;101056.31;;;31.03;nan
23223;BME280;11780;13.904;100.620;2023-09-12T03:41:58;101039.75;;;31.03;nan
23223;BME280;11780;13.904;100.620;2023-09-12T03:44:29;101038.13;;;31.02;nan
23223;BME280;11780;13.904;100.620;2023-09-12T03:46:59;101041.38;;;31.04;nan
23223;BME280;11780;13.904;100.620;2023-09-12T03:49:30;101052.44;;;31.04;nan
23223;BME280;11780;13.904;100.620;2023-09-12T03:52:01;101045.06;;;30.99;nan
23223;BME280;11780;13.904;100.620;2023-09-12T03:54:31;101042.81;;;31.01;nan
23223;BME280;11780;13.904;100.620;2023-09-12T03:57:01;101039.75;;;31.03;nan
23223;BME280;11780;13.904;100.620;2023-09-12T03:59:32;101039.75;;;31.03;nan
23223;BME280;11780;13.904;100.620;2023-09-12T04:02:03;101044.16;;;31.04;nan
23223;BME280;11780;13.904;100.620;2023-09-12T04:04:33;101032.72;;;30.96;nan
23223;BME280;11780;13.904;100.620;2023-09-12T04:07:04;101033.03;;;30.95;nan
23223;BME280;11780;13.904;100.620;2023-09-12T04:09:35;101025.38;;;30.92;nan
23223;BME280;11780;13.904;100.620;2023-09-12T04:12:06;101021.66;;;30.96;nan
23223;BME280;11780;13.904;100.620;2023-09-12T04:14:37;101013.22;;;30.93;nan
23223;BME280;11780;13.904;100.620;2023-09-12T04:17:07;101017.28;;;30.95;nan
23223;BME280;11780;13.904;100.620;2023-09-12T04:19:38;101015.84;;;30.98;nan
23223;BME280;11780;13.904;100.620;2023-09-12T04:22:09;101012.75;;;30.99;nan
23223;BME280;11780;13.904;100.620;2023-09-12T04:24:39;101012.75;;;30.99;nan
23223;BME280;11780;13.904;100.620;2023-09-12T04:27:10;100996.19;;;30.99;nan
23223;BME280;11780;13.904;100.620;2023-09-12T04:29:40;100999.44;;;31.02;nan
23223;BME280;11780;13.904;100.620;2023-09-12T04:32:11;101001.38;;;31.01;nan
23223;BME280;11780;13.904;100.620;2023-09-12T04:34:43;100993.41;;;30.99;nan
23223;BME280;11780;13.904;100.620;2023-09-12T04:37:13;100991.66;;;31.04;nan
23223;BME280;11780;13.904;100.620;2023-09-12T04:39:45;100993.59;;;31.03;nan
23223;BME280;11780;13.904;100.620;2023-09-12T04:42:15;100986.63;;;31.06;nan
23223;BME280;11780;13.904;100.620;2023-09-12T04:44:46;100972.16;;;31.09;nan
23223;BME280;11780;13.904;100.620;2023-09-12T04:47:16;100974.13;;;31.08;nan
23223;BME280;11780;13.904;100.620;2023-09-12T04:49:46;100968.59;;;31.08;nan
23223;BME280;11780;13.904;100.620;2023-09-12T04:52:17;100966.63;;;31.09;nan
23223;BME280;11780;13.904;100.620;2023-09-12T04:54:47;100958.84;;;31.11;nan
23223;BME280;11780;13.904;100.620;2023-09-12T04:57:18;100960.47;;;31.12;nan
23223;BME280;11780;13.904;100.620;2023-09-12T04:59:50;100961.00;;;31.14;nan
23223;BME280;11780;13.904;100.620;2023-09-12T05:02:20;100950.09;;;31.18;nan
23223;BME280;11780;13.904;100.620;2023-09-12T05:04:51;100948.16;;;31.18;nan
23223;BME280;11780;13.904;100.620;2023-09-12T05:07:23;100942.31;;;31.20;nan
23223;BME280;11780;13.904;100.620;2023-09-12T05:09:54;100932.09;;;31.20;nan
23223;BME280;11780;13.904;100.620;2023-09-12T05:12:24;100930.97;;;31.21;nan
23223;BME280;11780;13.904;100.620;2023-09-12T05:14:55;100922.31;;;31.23;nan
23223;BME280;11780;13.904;100.620;2023-09-12T05:17:25;100919.56;;;31.23;nan
23223;BME280;11780;13.904;100.620;2023-09-12T05:19:56;100909.31;;;31.23;nan
23223;BME280;11780;13.904;100.620;2023-09-12T05:22:27;100909.31;;;31.23;nan
23223;BME280;11780;13.904;100.620;2023-09-12T05:24:58;100915.03;;;31.27;nan
23223;BME280;11780;13.904;100.620;2023-09-12T05:27:29;100897.97;;;31.25;nan
23223;BME280;11780;13.904;100.620;2023-09-12T05:29:59;100904.28;;;31.25;nan
23223;BME280;11780;13.904;100.620;2023-09-12T05:32:30;100902.00;;;31.27;nan
23223;BME280;11780;13.904;100.620;2023-09-12T05:35:01;100897.31;;;31.28;nan
23223;BME280;11780;13.904;100.620;2023-09-12T05:37:46;100898.94;;;31.29;nan
23223;BME280;11780;13.904;100.620;2023-09-12T05:40:18;100893.41;;;31.29;nan
23223;BME280;11780;13.904;100.620;2023-09-12T05:42:49;100885.44;;;31.27;nan
23223;BME280;11780;13.904;100.620;2023-09-12T05:45:19;100881.53;;;31.28;nan
23223;BME280;11780;13.904;100.620;2023-09-12T05:47:50;100878.28;;;31.26;nan
23223;BME280;11780;13.904;100.620;2023-09-12T05:50:21;100877.13;;;31.27;nan
23223;BME280;11780;13.904;100.620;2023-09-12T05:52:51;100855.53;;;31.29;nan
23223;BME280;11780;13.904;100.620;2023-09-12T05:55:22;100852.44;;;31.31;nan
23223;BME280;11780;13.904;100.620;2023-09-12T05:57:54;100853.25;;;31.32;nan
23223;BME280;11780;13.904;100.620;2023-09-12T06:00:24;100852.63;;;31.35;nan
23223;BME280;11780;13.904;100.620;2023-09-12T06:02:55;100845.47;;;31.34;nan
23223;BME280;11780;13.904;100.620;2023-09-12T06:05:25;100843.19;;;31.36;nan
23223;BME280;11780;13.904;100.620;2023-09-12T06:07:56;100846.75;;;31.36;nan
23223;BME280;11780;13.904;100.620;2023-09-12T06:10:27;100837.97;;;31.34;nan
23223;BME280;11780;13.904;100.620;2023-09-12T06:12:57;100825.47;;;31.37;nan
23223;BME280;11780;13.904;100.620;2023-09-12T06:15:28;100827.06;;;31.38;nan
23223;BME280;11780;13.904;100.620;2023-09-12T06:17:58;100825.47;;;31.37;nan
23223;BME280;11780;13.904;100.620;2023-09-12T06:20:28;100817.47;;;31.35;nan
23223;BME280;11780;13.904;100.620;2023-09-12T06:22:59;100814.88;;;31.39;nan
23223;BME280;11780;13.904;100.620;2023-09-12T06:25:29;100806.56;;;31.39;nan
23223;BME280;11780;13.904;100.620;2023-09-12T06:28:00;100805.44;;;31.40;nan
23223;BME280;11780;13.904;100.620;2023-09-12T06:30:30;100807.91;;;31.41;nan
23223;BME280;11780;13.904;100.620;2023-09-12T06:33:00;100803.16;;;31.42;nan
23223;BME280;11780;13.904;100.620;2023-09-12T06:35:32;100797.63;;;31.42;nan
23223;BME280;11780;13.904;100.620;2023-09-12T06:38:03;100807.56;;;31.43;nan
23223;BME280;11780;13.904;100.620;2023-09-12T06:40:33;100794.56;;;31.43;nan
23223;BME280;11780;13.904;100.620;2023-09-12T06:43:03;100804.00;;;31.42;nan
23223;BME280;11780;13.904;100.620;2023-09-12T06:45:34;100805.63;;;31.43;nan
23223;BME280;11780;13.904;100.620;2023-09-12T06:48:07;100808.84;;;31.46;nan
23223;BME280;11780;13.904;100.620;2023-09-12T06:50:38;100802.53;;;31.45;nan
23223;BME280;11780;13.904;100.620;2023-09-12T06:53:09;100793.75;;;31.43;nan
23223;BME280;11780;13.904;100.620;2023-09-12T06:55:40;100783.50;;;31.43;nan
23223;BME280;11780;13.904;100.620;2023-09-12T06:58:10;100784.81;;;31.46;nan
23223;BME280;11780;13.904;100.620;2023-09-12T07:00:41;100783.97;;;31.46;nan
23223;BME280;11780;13.904;100.620;2023-09-12T07:03:12;100771.31;;;31.44;nan
23223;BME280;11780;13.904;100.620;2023-09-12T07:05:43;100772.59;;;31.47;nan
23223;BME280;11780;13.904;100.620;2023-09-12T07:08:14;100775.69;;;31.46;nan
23223;BME280;11780;13.904;100.620;2023-09-12T07:10:45;100774.38;;;31.43;nan
23223;BME280;11780;13.904;100.620;2023-09-12T07:13:16;100764.97;;;31.44;nan
23223;BME280;11780;13.904;100.620;2023-09-12T07:15:46;100758.28;;;31.45;nan
23223;BME280;11780;13.904;100.620;2023-09-12T07:18:17;100752.28;;;31.43;nan
23223;BME280;11780;13.904;100.620;2023-09-12T07:21:04;100743.34;;;31.46;nan
23223;BME280;11780;13.904;100.620;2023-09-12T07:23:35;100743.34;;;31.46;nan
23223;BME280;11780;13.904;100.620;2023-09-12T07:26:05;100744.97;;;31.47;nan
23223;BME280;11780;13.904;100.620;2023-09-12T07:28:36;100745.13;;;31.51;nan
23223;BME280;11780;13.904;100.620;2023-09-12T07:31:07;100734.06;;;31.51;nan
23223;BME280;11780;13.904;100.620;2023-09-12T07:33:37;100735.69;;;31.52;nan
23223;BME280;11780;13.904;100.620;2023-09-12T07:36:08;100730.16;;;31.52;nan
23223;BME280;11780;13.904;100.620;2023-09-12T07:38:38;100734.88;;;31.51;nan
23223;BME280;11780;13.904;100.620;2023-09-12T07:41:09;100730.97;;;31.52;nan
23223;BME280;11780;13.904;100.620;2023-09-12T07:43:40;100730.16;;;31.52;nan
23223;BME280;11780;13.904;100.620;2023-09-12T07:46:11;100731.28;;;31.51;nan
23223;BME280;11780;13.904;100.620;2023-09-12T07:48:42;100724.97;;;31.50;nan
23223;BME280;11780;13.904;100.620;2023-09-12T07:51:13;100717.81;;;31.49;nan
23223;BME280;11780;13.904;100.620;2023-09-12T07:53:44;100712.75;;;31.51;nan
23223;BME280;11780;13.904;100.620;2023-09-12T07:56:14;100711.94;;;31.51;nan
23223;BME280;11780;13.904;100.620;2023-09-12T07:58:45;100706.41;;;31.51;nan
23223;BME280;11780;13.904;100.620;2023-09-12T08:01:15;100704.94;;;31.53;nan
23223;BME280;11780;13.904;100.620;2023-09-12T08:03:46;100701.72;;;31.51;nan
23223;BME280;11780;13.904;100.620;2023-09-12T08:06:17;100709.31;;;31.54;nan
23223;BME280;11780;13.904;100.620;2023-09-12T08:08:47;100712.09;;;31.54;nan
23223;BME280;11780;13.904;100.620;2023-09-12T08:11:18;100714.38;;;31.52;nan
23223;BME280;11780;13.904;100.620;2023-09-12T08:13:49;100721.50;;;31.53;nan
23223;BME280;11780;13.904;100.620;2023-09-12T08:16:21;100736.97;;;31.54;nan
23223;BME280;11780;13.904;100.620;2023-09-12T08:18:51;100739.28;;;31.52;nan
23223;BME280;11780;13.904;100.620;2023-09-12T08:21:22;100741.22;;;31.52;nan
23223;BME280;11780;13.904;100.620;2023-09-12T08:23:52;100733.25;;;31.50;nan
23223;BME280;11780;13.904;100.620;2023-09-12T08:26:23;100728.38;;;31.47;nan
23223;BME280;11780;13.904;100.620;2023-09-12T08:28:54;100729.19;;;31.48;nan
23223;BME280;11780;13.904;100.620;2023-09-12T08:31:24;100732.13;;;31.42;nan
23223;BME280;11780;13.904;100.620;2023-09-12T08:33:54;100722.53;;;31.40;nan
23223;BME280;11780;13.904;100.620;2023-09-12T08:36:25;100713.59;;;31.34;nan
23223;BME280;11780;13.904;100.620;2023-09-12T08:38:55;100719.78;;;31.31;nan
23223;BME280;11780;13.904;100.620;2023-09-12T08:41:25;100713.28;;;31.27;nan
23223;BME280;11780;13.904;100.620;2023-09-12T08:43:56;100721.25;;;31.28;nan
23223;BME280;11780;13.904;100.620;2023-09-12T08:46:27;100711.66;;;31.26;nan
23223;BME280;11780;13.904;100.620;2023-09-12T08:48:58;100718.00;;;31.26;nan
23223;BME280;11780;13.904;100.620;2023-09-12T08:51:28;100708.06;;;31.25;nan
23223;BME280;11780;13.904;100.620;2023-09-12T08:53:59;100705.00;;;31.27;nan
23223;BME280;11780;13.904;100.620;2023-09-12T08:56:32;100695.41;;;31.24;nan
23223;BME280;11780;13.904;100.620;2023-09-12T08:59:04;100688.72;;;31.25;nan
23223;BME280;11780;13.904;100.620;2023-09-12T09:01:36;100684.34;;;31.24;nan
23223;BME280;11780;13.904;100.620;2023-09-12T09:04:08;100684.84;;;31.26;nan
23223;BME280;11780;13.904;100.620;2023-09-12T09:06:40;100680.78;;;31.24;nan
23223;BME280;11780;13.904;100.620;2023-09-12T09:09:12;100665.84;;;31.25;nan
23223;BME280;11780;13.904;100.620;2023-09-12T09:11:43;100668.59;;;31.25;nan
23223;BME280;11780;13.904;100.620;2023-09-12T09:14:14;100669.72;;;31.24;nan
23223;BME280;11780;13.904;100.620;2023-09-12T09:16:44;100667.75;;;31.24;nan
23223;BME280;11780;13.904;100.620;2023-09-12T09:19:14;100664.22;;;31.24;nan
23223;BME280;11780;13.904;100.620;2023-09-12T09:21:46;100656.22;;;31.22;nan
23223;BME280;11780;13.904;100.620;2023-09-12T09:24:17;100661.09;;;31.25;nan
23223;BME280;11780;13.904;100.620;2023-09-12T09:26:51;100664.22;;;31.24;nan
23223;BME280;11780;13.904;100.620;2023-09-12T09:29:28;100656.72;;;31.24;nan
23223;BME280;11780;13.904;100.620;2023-09-12T09:32:01;100667.44;;;31.26;nan
23223;BME280;11780;13.904;100.620;2023-09-12T09:34:31;100657.69;;;31.28;nan
23223;BME280;11780;13.904;100.620;2023-09-12T09:37:03;100660.44;;;31.28;nan
23223;BME280;11780;13.904;100.620;2023-09-12T09:39:35;100662.06;;;31.29;nan
23223;BME280;11780;13.904;100.620;2023-09-12T09:42:10;100666.31;;;31.27;nan
23223;BME280;11780;13.904;100.620;2023-09-12T09:44:41;100667.13;;;31.27;nan
23223;BME280;11780;13.904;100.620;2023-09-12T09:47:12;100672.97;;;31.26;nan
23223;BME280;11780;13.904;100.620;2023-09-12T09:49:45;100677.69;;;31.25;nan
23223;BME280;11780;13.904;100.620;2023-09-12T09:52:16;100680.44;;;31.25;nan
23223;BME280;11780;13.904;100.620;2023-09-12T09:54:55;100677.69;;;31.25;nan
23223;BME280;11780;13.904;100.620;2023-09-12T09:57:26;100681.59;;;31.24;nan
23223;BME280;11780;13.904;100.620;2023-09-12T09:59:57;100673.78;;;31.26;nan
23223;BME280;11780;13.904;100.620;2023-09-12T10:02:31;100665.84;;;31.25;nan
23223;BME280;11780;13.904;100.620;2023-09-12T10:05:05;100672.66;;;31.27;nan
23223;BME280;11780;13.904;100.620;2023-09-12T10:07:40;100676.06;;;31.24;nan
23223;BME280;11780;13.904;100.620;2023-09-12T10:10:12;100687.09;;;31.24;nan
23223;BME280;11780;13.904;100.620;2023-09-12T10:12:49;100686.47;;;31.27;nan
23223;BME280;11780;13.904;100.620;2023-09-12T10:15:21;100683.69;;;31.27;nan
23223;BME280;11780;13.904;100.620;2023-09-12T10:17:58;100690.84;;;31.28;nan
23223;BME280;11780;13.904;100.620;2023-09-12T10:20:47;100695.25;;;31.29;nan
23223;BME280;11780;13.904;100.620;2023-09-12T10:23:37;100703.03;;;31.27;nan
23223;BME280;11780;13.904;100.620;2023-09-12T10:26:13;100697.84;;;31.26;nan
23223;BME280;11780;13.904;100.620;2023-09-12T10:28:46;100706.94;;;31.26;nan
23223;BME280;11780;13.904;100.620;2023-09-12T10:31:17;100699.97;;;31.29;nan
23223;BME280;11780;13.904;100.620;2023-09-12T10:33:49;100698.34;;;31.28;nan
23223;BME280;11780;13.904;100.620;2023-09-12T10:36:20;100703.03;;;31.27;nan
23223;BME280;11780;13.904;100.620;2023-09-12T10:38:52;100700.28;;;31.27;nan
23223;BME280;11780;13.904;100.620;2023-09-12T10:41:24;100708.91;;;31.26;nan
23223;BME280;11780;13.904;100.620;2023-09-12T10:43:56;100716.72;;;31.24;nan
23223;BME280;11780;13.904;100.620;2023-09-12T10:46:28;100719.97;;;31.26;nan
23223;BME280;11780;13.904;100.620;2023-09-12T10:48:59;100724.34;;;31.27;nan
23223;BME280;11780;13.904;100.620;2023-09-12T10:51:31;100725.97;;;31.28;nan
23223;BME280;11780;13.904;100.620;2023-09-12T10:54:02;100725.16;;;31.27;nan
23223;BME280;11780;13.904;100.620;2023-09-12T10:56:33;100739.63;;;31.24;nan
23223;BME280;11780;13.904;100.620;2023-09-12T11:01:36;100747.91;;;31.24;nan
23223;BME280;11780;13.904;100.620;2023-09-12T11:06:50;100751.50;;;31.25;nan
23223;BME280;11780;13.904;100.620;2023-09-12T11:09:24;100756.84;;;31.30;nan
23223;BME280;11780;13.904;100.620;2023-09-12T11:14:27;100765.47;;;31.28;nan
23223;BME280;11780;13.904;100.620;2023-09-12T11:19:44;100763.53;;;31.29;nan
23223;BME280;11780;13.904;100.620;2023-09-12T11:22:29;100762.69;;;31.28;nan
23223;BME280;11780;13.904;100.620;2023-09-12T11:25:02;100766.59;;;31.27;nan
23223;BME280;11780;13.904;100.620;2023-09-12T11:28:01;100768.88;;;31.25;nan
23223;BME280;11780;13.904;100.620;2023-09-12T11:30:33;100764.34;;;31.21;nan
23223;BME280;11780;13.904;100.620;2023-09-12T11:33:05;100781.75;;;31.21;nan
23223;BME280;11780;13.904;100.620;2023-09-12T11:35:41;100786.78;;;31.19;nan
23223;BME280;11780;13.904;100.620;2023-09-12T11:38:28;100791.16;;;31.20;nan
23223;BME280;11780;13.904;100.620;2023-09-12T11:41:00;100794.72;;;31.21;nan
23223;BME280;11780;13.904;100.620;2023-09-12T11:43:30;100804.78;;;31.25;nan
23223;BME280;11780;13.904;100.620;2023-09-12T11:46:02;100811.47;;;31.24;nan
23223;BME280;11780;13.904;100.620;2023-09-12T11:48:34;100812.59;;;31.23;nan
23223;BME280;11780;13.904;100.620;2023-09-12T11:51:07;100819.94;;;31.28;nan
23223;BME280;11780;13.904;100.620;2023-09-12T11:53:38;100830.16;;;31.27;nan
23223;BME280;11780;13.904;100.620;2023-09-12T11:56:09;100827.41;;;31.27;nan
23223;BME280;11780;13.904;100.620;2023-09-12T11:58:40;100835.19;;;31.25;nan
23223;BME280;11780;13.904;100.620;2023-09-12T12:01:12;100842.19;;;31.23;nan
23223;BME280;11780;13.904;100.620;2023-09-12T12:03:44;100841.84;;;31.24;nan
23223;BME280;11780;13.904;100.620;2023-09-12T12:06:14;100846.59;;;31.24;nan
23223;BME280;11780;13.904;100.620;2023-09-12T12:08:45;100851.28;;;31.23;nan
23223;BME280;11780;13.904;100.620;2023-09-12T12:11:16;100855.84;;;31.19;nan
23223;BME280;11780;13.904;100.620;2023-09-12T12:13:47;100860.72;;;31.22;nan
23223;BME280;11780;13.904;100.620;2023-09-12T12:16:17;100856.97;;;31.18;nan
23223;BME280;11780;13.904;100.620;2023-09-12T12:18:49;100858.63;;;31.19;nan
23223;BME280;11780;13.904;100.620;2023-09-12T12:21:25;100860.38;;;31.15;nan
23223;BME280;11780;13.904;100.620;2023-09-12T12:23:59;100859.25;;;31.16;nan
23223;BME280;11780;13.904;100.620;2023-09-12T12:26:30;100867.53;;;31.16;nan
23223;BME280;11780;13.904;100.620;2023-09-12T12:29:01;100873.06;;;31.16;nan
23223;BME280;11780;13.904;100.620;2023-09-12T12:31:32;100869.66;;;31.19;nan
23223;BME280;11780;13.904;100.620;2023-09-12T12:34:02;100878.25;;;31.18;nan
23223;BME280;11780;13.904;100.620;2023-09-12T12:36:54;100877.13;;;31.19;nan
23223;BME280;11780;13.904;100.620;2023-09-12T12:39:25;100884.44;;;31.23;nan
23223;BME280;11780;13.904;100.620;2023-09-12T12:41:56;100881.22;;;31.21;nan
23223;BME280;11780;13.904;100.620;2023-09-12T12:44:33;100878.13;;;31.23;nan
23223;BME280;11780;13.904;100.620;2023-09-12T12:47:10;100885.13;;;31.20;nan
23223;BME280;11780;13.904;100.620;2023-09-12T12:49:41;100892.25;;;31.21;nan
23223;BME280;11780;13.904;100.620;2023-09-12T12:52:13;100895.34;;;31.20;nan
23223;BME280;11780;13.904;100.620;2023-09-12T12:54:44;100893.88;;;31.22;nan
23223;BME280;11780;13.904;100.620;2023-09-12T12:57:19;100903.31;;;31.21;nan
23223;BME280;11780;13.904;100.620;2023-09-12T13:02:03;100899.06;;;31.15;66.24
23223;BME280;11780;13.904;100.620;2023-09-12T13:04:37;100898.03;;;31.02;66.42
23223;BME280;11780;13.904;100.620;2023-09-12T13:07:08;100914.94;;;31.01;66.86
23223;BME280;11780;13.904;100.620;2023-09-12T13:09:38;100916.22;;;31.03;66.69
23223;BME280;11780;13.904;100.620;2023-09-12T13:12:08;100917.19;;;30.98;66.60
23223;BME280;11780;13.904;100.620;2023-09-12T13:14:40;100921.72;;;30.94;66.78
23223;BME280;11780;13.904;100.620;2023-09-12T13:17:11;100928.72;;;30.92;66.46
23223;BME280;11780;13.904;100.620;2023-09-12T13:19:41;100928.53;;;30.88;66.86
23223;BME280;11780;13.904;100.620;2023-09-12T13:22:12;100917.75;;;30.78;67.22
23223;BME280;11780;13.904;100.620;2023-09-12T13:24:42;100931.56;;;30.78;67.34
23223;BME280;11780;13.904;100.620;2023-09-12T13:27:13;100940.84;;;30.82;67.30
23223;BME280;11780;13.904;100.620;2023-09-12T13:29:43;100941.66;;;30.74;67.92